Maddock, North Dakota
Current Conditions -  °F | °C
As of 9:55 PM on Thursday 18 Dec 2014 (Local Time) from K5H4 Reporting Station
Haze Haze  
Wind Chill: 17°   Ceiling: 700
Heat Index: 25°   Visibility: 4mi
Dew Point: 25°   Wind: 7mph
Humidity: 100%   Direction: 180°S
Pressure: 30.01"   Gusts: NA
Location:  47.96°N, 99.53°W
Report Text: K5H4 190355Z AUTO 18006KT 4SM BR OVC007 M04/M04 A3001 RMK AO2
Loading
Personal Weather Stations






























Interactive Weather Map New forecast layout! Learn more

10-Day Weather Forecast

Advertisements
Track Severe Weather on mobile